Time;durP1;ratioP1;P1;durP2;ratioP2;P2;SDS_P1;SDS_P2;PMS_P1;PMS_P2;Temp;Humidity;BMP_temperature;BMP_pressure;BME280_temperature;BME280_humidity;BME280_pressure;Samples;Min_cycle;Max_cycle;Signal;HPM_P1;HPM_P2
2022/11/18 00:01:33;;;;;;;24.52;17.75;;;7.00;99.90;;;;;;4911872;29;20683;-53
2022/11/18 00:03:59;;;;;;;23.50;18.15;;;7.00;99.90;;;;;;4913353;29;20039;-54
2022/11/18 00:06:28;;;;;;;22.13;17.67;;;7.10;99.90;;;;;;4912481;29;20048;-54
2022/11/18 00:08:54;;;;;;;22.08;17.60;;;7.00;99.90;;;;;;4914130;29;20079;-54
2022/11/18 00:14:19;;;;;;;22.98;17.95;;;7.00;99.90;;;;;;4914397;29;20044;-53
2022/11/18 00:16:56;;;;;;;21.98;17.38;;;7.00;99.90;;;;;;4912832;29;20859;-56
2022/11/18 00:19:25;;;;;;;23.52;17.55;;;7.00;99.90;;;;;;4913203;29;20051;-52
2022/11/18 00:21:51;;;;;;;22.38;16.98;;;7.00;99.90;;;;;;4910657;29;20753;-54
2022/11/18 00:24:17;;;;;;;21.75;16.98;;;7.00;99.90;;;;;;4910952;29;20048;-54
2022/11/18 00:26:43;;;;;;;27.10;16.98;;;7.00;99.90;;;;;;4911664;29;20642;-54
2022/11/18 00:29:09;;;;;;;21.83;17.05;;;7.00;99.90;;;;;;4911855;29;20048;-55
2022/11/18 00:31:36;;;;;;;20.83;15.95;;;7.00;99.90;;;;;;4910523;29;20103;-53
2022/11/18 00:34:02;;;;;;;22.50;16.40;;;7.00;99.90;;;;;;4913871;29;20070;-53
2022/11/18 00:36:28;;;;;;;23.08;16.88;;;7.00;99.90;;;;;;4910983;29;20051;-52
2022/11/18 00:38:54;;;;;;;20.83;16.67;;;7.00;99.90;;;;;;4912821;29;20050;-56
2022/11/18 00:41:20;;;;;;;20.95;16.60;;;7.10;99.90;;;;;;4909518;29;20059;-53
2022/11/18 00:43:46;;;;;;;23.00;17.00;;;7.00;99.90;;;;;;4908198;29;20223;-52
2022/11/18 00:46:12;;;;;;;22.23;16.88;;;7.00;99.90;;;;;;4911409;29;20063;-51
2022/11/18 00:48:39;;;;;;;21.10;16.85;;;7.00;99.90;;;;;;4910007;29;20594;-54
2022/11/18 00:51:16;;;;;;;20.92;16.15;;;7.00;99.90;;;;;;4903278;29;20052;-53
2022/11/18 00:53:43;;;;;;;22.63;16.45;;;7.00;99.90;;;;;;4911064;29;20055;-55
2022/11/18 00:56:09;;;;;;;21.17;16.45;;;7.00;99.90;;;;;;4912690;29;20063;-54
2022/11/18 00:58:35;;;;;;;22.60;16.65;;;7.00;99.90;;;;;;4913414;29;20051;-54
2022/11/18 01:01:02;;;;;;;22.90;17.38;;;7.00;99.90;;;;;;4913040;29;20143;-55
2022/11/18 01:03:29;;;;;;;23.08;17.90;;;7.00;99.90;;;;;;4913383;29;20139;-56
2022/11/18 01:05:54;;;;;;;26.90;18.10;;;7.00;99.90;;;;;;4896496;29;20119;-56
2022/11/18 01:08:21;;;;;;;26.40;18.77;;;7.00;99.90;;;;;;4913357;29;20052;-52
2022/11/18 01:10:47;;;;;;;28.30;17.63;;;7.00;99.90;;;;;;4910939;29;20114;-54
2022/11/18 01:13:19;;;;;;;26.73;18.33;;;7.00;99.90;;;;;;4912297;29;20059;-54
2022/11/18 01:15:51;;;;;;;26.83;19.08;;;7.00;99.90;;;;;;4899017;29;20508;-53
2022/11/18 01:18:19;;;;;;;24.38;18.27;;;6.90;99.90;;;;;;4913571;29;20048;-56
2022/11/18 01:20:46;;;;;;;25.15;17.48;;;7.00;99.90;;;;;;4910795;29;20123;-52
2022/11/18 01:23:12;;;;;;;23.05;16.92;;;6.90;99.90;;;;;;4911109;29;20048;-53
2022/11/18 01:25:40;;;;;;;30.55;18.10;;;7.00;99.90;;;;;;4910894;29;20055;-54
2022/11/18 01:28:06;;;;;;;25.33;17.45;;;7.00;99.90;;;;;;4910731;29;20051;-54
2022/11/18 01:30:33;;;;;;;24.85;16.10;;;6.90;99.90;;;;;;4911965;29;20059;-56
2022/11/18 01:33:00;;;;;;;24.33;16.85;;;6.90;99.90;;;;;;4911823;28;20056;-54
2022/11/18 01:35:25;;;;;;;24.35;17.35;;;6.90;99.90;;;;;;4912281;29;20051;-54
2022/11/18 01:37:51;;;;;;;24.35;16.80;;;6.90;99.90;;;;;;4901192;29;20051;-52
2022/11/18 01:40:17;;;;;;;24.20;17.90;;;6.90;99.90;;;;;;4914021;29;20048;-56
2022/11/18 01:42:43;;;;;;;23.52;17.35;;;6.90;99.90;;;;;;4915788;29;20047;-52
2022/11/18 01:45:19;;;;;;;29.95;17.52;;;6.90;99.90;;;;;;4911394;29;20059;-53
2022/11/18 01:47:50;;;;;;;24.98;16.83;;;6.90;99.90;;;;;;4915136;29;20056;-52
2022/11/18 01:50:18;;;;;;;28.45;17.88;;;6.90;99.90;;;;;;4913814;29;20048;-54
2022/11/18 01:52:45;;;;;;;25.63;16.92;;;6.80;99.90;;;;;;4915290;29;20040;-54
2022/11/18 01:55:18;;;;;;;28.45;17.45;;;6.80;99.90;;;;;;4914479;29;20451;-54
2022/11/18 01:57:46;;;;;;;;;;;6.80;99.90;;;;;;4913150;29;20056;-53
2022/11/18 02:00:12;;;;;;;28.42;17.42;;;6.80;99.90;;;;;;4915372;29;19990;-54
2022/11/18 02:02:38;;;;;;;25.00;17.00;;;6.80;99.90;;;;;;4914228;29;20040;-54
2022/11/18 02:05:07;;;;;;;22.80;16.55;;;6.80;99.90;;;;;;4914412;29;20067;-52
2022/11/18 02:07:39;;;;;;;26.42;18.02;;;6.80;99.90;;;;;;4914862;29;20166;-53
2022/11/18 02:10:06;;;;;;;28.57;18.03;;;6.80;99.90;;;;;;4915949;29;20099;-55
2022/11/18 02:12:34;;;;;;;26.52;17.35;;;6.80;99.90;;;;;;4914937;29;20379;-54
2022/11/18 02:15:01;;;;;;;24.65;16.52;;;6.80;99.90;;;;;;4913761;29;20706;-54
2022/11/18 02:17:36;;;;;;;24.17;16.08;;;6.80;99.90;;;;;;4904778;29;20555;-52
2022/11/18 02:20:07;;;;;;;27.27;17.50;;;6.80;99.90;;;;;;4915848;29;20058;-53
2022/11/18 02:23:07;;;;;;;29.05;17.15;;;6.80;99.90;;;;;;4914060;29;20044;-54
2022/11/18 02:26:10;;;;;;;27.88;17.65;;;6.80;99.90;;;;;;4898669;29;20155;-52
2022/11/18 02:29:03;;;;;;;24.97;16.53;;;6.80;99.90;;;;;;4915534;29;20194;-54
2022/11/18 02:31:53;;;;;;;30.02;17.88;;;6.80;99.90;;;;;;4919662;29;20052;-54
2022/11/18 02:34:37;;;;;;;31.20;17.80;;;6.70;99.90;;;;;;4935000;28;20051;-54
2022/11/18 02:37:13;;;;;;;29.58;16.85;;;6.80;99.90;;;;;;4932353;29;20055;-54
2022/11/18 02:39:53;;;;;;;28.35;17.73;;;6.70;99.90;;;;;;4933965;29;20051;-54
2022/11/18 02:42:20;;;;;;;30.23;18.63;;;6.70;99.90;;;;;;4931858;29;20039;-54
2022/11/18 02:44:51;;;;;;;29.95;17.83;;;6.70;99.90;;;;;;4933745;28;20105;-55
2022/11/18 02:47:19;;;;;;;31.33;18.90;;;6.70;99.90;;;;;;4933444;29;20074;-56
2022/11/18 02:49:54;;;;;;;30.38;18.00;;;6.70;99.90;;;;;;4931561;28;20046;-54
2022/11/18 02:52:22;;;;;;;33.85;18.90;;;6.70;99.90;;;;;;4930635;28;20082;-56
2022/11/18 02:54:50;;;;;;;32.10;18.00;;;6.80;99.90;;;;;;4932011;28;20056;-56
2022/11/18 02:57:18;;;;;;;28.90;17.20;;;6.70;99.90;;;;;;4929533;28;20040;-53
2022/11/18 02:59:44;;;;;;;28.40;17.73;;;6.70;99.90;;;;;;4930404;29;20059;-53
2022/11/18 03:02:16;;;;;;;28.73;18.10;;;6.70;99.90;;;;;;4930146;29;20051;-50
2022/11/18 03:04:42;;;;;;;29.85;17.80;;;6.70;99.90;;;;;;4929031;28;20399;-55
2022/11/18 03:07:28;;;;;;;30.23;17.42;;;6.70;99.90;;;;;;4930744;28;20055;-56
2022/11/18 03:09:55;;;;;;;24.98;16.45;;;6.70;99.90;;;;;;4931079;29;20807;-51
2022/11/18 03:13:01;;;;;;;25.70;16.45;;;6.70;99.90;;;;;;4930423;29;20051;-56
2022/11/18 03:15:36;;;;;;;25.17;16.92;;;6.70;99.90;;;;;;4928839;29;20046;-53
2022/11/18 03:18:52;;;;;;;27.98;16.40;;;6.60;99.90;;;;;;4932399;28;20043;-54
2022/11/18 03:21:28;;;;;;;26.38;16.23;;;6.60;99.90;;;;;;4929953;28;20054;-54
2022/11/18 03:24:27;;;;;;;26.23;16.50;;;6.60;99.90;;;;;;4927969;29;20047;-53
2022/11/18 03:27:06;;;;;;;25.15;15.70;;;6.60;99.90;;;;;;4930677;28;20142;-54
2022/11/18 03:29:37;;;;;;;30.13;16.58;;;6.60;99.90;;;;;;4931663;29;20063;-53
2022/11/18 03:32:16;;;;;;;28.15;15.88;;;6.60;99.90;;;;;;4919411;28;20107;-55
2022/11/18 03:34:50;;;;;;;27.17;15.68;;;6.60;99.90;;;;;;4911047;29;20063;-52
2022/11/18 03:37:19;;;;;;;27.70;15.70;;;6.60;99.90;;;;;;4909614;29;20044;-50
2022/11/18 03:39:58;;;;;;;24.27;15.60;;;6.50;99.90;;;;;;4911342;29;20052;-54
2022/11/18 03:42:30;;;;;;;20.75;14.45;;;6.50;99.90;;;;;;4909278;29;20055;-55
2022/11/18 03:45:01;;;;;;;22.60;14.80;;;6.50;99.90;;;;;;4912421;29;20130;-53
2022/11/18 03:47:45;;;;;;;20.83;13.95;;;6.50;99.90;;;;;;4912635;29;20363;-53
2022/11/18 03:50:13;;;;;;;21.08;15.35;;;6.50;99.90;;;;;;4914372;29;20051;-54
2022/11/18 03:52:39;;;;;;;24.30;14.85;;;6.50;99.90;;;;;;4912828;29;20092;-54
2022/11/18 03:55:12;;;;;;;23.33;15.27;;;6.50;99.90;;;;;;4903750;29;20610;-52
2022/11/18 03:57:49;;;;;;;21.42;14.68;;;6.50;99.90;;;;;;4913306;29;20051;-54
2022/11/18 04:00:16;;;;;;;20.90;14.75;;;6.50;99.90;;;;;;4912444;29;20082;-54
2022/11/18 04:02:44;;;;;;;22.63;15.13;;;6.50;99.90;;;;;;4912333;29;20055;-55
2022/11/18 04:05:12;;;;;;;21.20;14.02;;;6.50;99.90;;;;;;4911620;29;20573;-51
2022/11/18 04:07:54;;;;;;;22.77;14.32;;;6.50;99.90;;;;;;4913812;29;20598;-50
2022/11/18 04:10:32;;;;;;;19.65;14.32;;;6.50;99.90;;;;;;4913188;29;20123;-53
2022/11/18 04:13:10;;;;;;;22.45;14.95;;;6.50;99.90;;;;;;4912645;29;20070;-52
2022/11/18 04:15:39;;;;;;;21.83;14.50;;;6.50;99.90;;;;;;4911704;29;20091;-53
2022/11/18 04:18:05;;;;;;;19.75;14.50;;;6.50;99.90;;;;;;4913810;29;20447;-53
2022/11/18 04:20:32;;;;;;;21.75;14.32;;;6.50;99.90;;;;;;4911475;29;20479;-52
2022/11/18 04:22:58;;;;;;;23.80;14.07;;;6.40;99.90;;;;;;4912562;29;20540;-55
2022/11/18 04:25:24;;;;;;;21.67;14.40;;;6.40;99.90;;;;;;4911912;29;20056;-54
2022/11/18 04:27:50;;;;;;;23.30;14.15;;;6.40;99.90;;;;;;4908764;29;20138;-56
2022/11/18 04:30:18;;;;;;;22.60;14.80;;;6.40;99.90;;;;;;4911055;29;20550;-52
2022/11/18 04:32:44;;;;;;;21.20;14.30;;;6.40;99.90;;;;;;4911195;29;20110;-55
2022/11/18 04:35:09;;;;;;;22.50;14.20;;;6.40;99.90;;;;;;4912047;29;20060;-55
2022/11/18 04:37:35;;;;;;;23.13;14.55;;;6.40;99.90;;;;;;4910834;29;20989;-55
2022/11/18 04:40:01;;;;;;;23.05;15.18;;;6.40;99.90;;;;;;4894284;29;20700;-52
2022/11/18 04:42:27;;;;;;;21.63;14.70;;;6.40;99.90;;;;;;4910670;29;20048;-53
2022/11/18 04:44:53;;;;;;;22.58;14.63;;;6.40;99.90;;;;;;4911359;29;20063;-53
2022/11/18 04:47:19;;;;;;;23.77;14.15;;;6.40;99.90;;;;;;4895231;29;20056;-54
2022/11/18 04:49:45;;;;;;;23.33;14.95;;;6.40;99.90;;;;;;4911070;29;20051;-56
2022/11/18 04:52:10;;;;;;;19.80;14.23;;;6.40;99.90;;;;;;4914473;29;20044;-51
2022/11/18 04:54:36;;;;;;;20.50;14.30;;;6.40;99.90;;;;;;4912582;29;20047;-54
2022/11/18 04:57:02;;;;;;;22.60;14.50;;;6.40;99.90;;;;;;4909860;29;20415;-56
2022/11/18 04:59:29;;;;;;;24.92;14.45;;;6.40;99.90;;;;;;4902962;29;20051;-54
2022/11/18 05:01:55;;;;;;;23.17;14.23;;;6.30;99.90;;;;;;4911690;29;20051;-54
2022/11/18 05:04:24;;;;;;;20.40;14.32;;;6.40;99.90;;;;;;4911550;29;20052;-55
2022/11/18 05:06:50;;;;;;;20.00;13.32;;;6.30;99.90;;;;;;4911776;29;20130;-55
2022/11/18 05:09:16;;;;;;;22.30;14.82;;;6.30;99.90;;;;;;4896410;29;20040;-54
2022/11/18 05:14:28;;;;;;;21.10;14.35;;;6.30;99.90;;;;;;4911704;29;20051;-51
2022/11/18 05:16:55;;;;;;;19.48;13.50;;;6.30;99.90;;;;;;4915147;29;20130;-54
2022/11/18 05:19:21;;;;;;;21.40;13.18;;;6.30;99.90;;;;;;4913329;29;20043;-54
2022/11/18 05:21:47;;;;;;;19.98;13.50;;;6.30;99.90;;;;;;4898112;29;20055;-56
2022/11/18 05:24:13;;;;;;;23.95;13.73;;;6.30;99.90;;;;;;4915973;29;20411;-54
2022/11/18 05:26:39;;;;;;;20.17;13.60;;;6.30;99.90;;;;;;4898068;29;20131;-53
2022/11/18 05:29:05;;;;;;;21.02;13.88;;;6.30;99.90;;;;;;4899223;29;20056;-51
2022/11/18 05:31:31;;;;;;;19.00;13.13;;;6.30;99.90;;;;;;4914009;29;20059;-52
2022/11/18 05:33:57;;;;;;;22.27;13.95;;;6.30;99.90;;;;;;4913692;29;20055;-54
2022/11/18 05:36:23;;;;;;;22.77;13.73;;;6.30;99.90;;;;;;4913869;29;20104;-53
2022/11/18 05:38:49;;;;;;;23.73;14.10;;;6.20;99.90;;;;;;4913324;29;20047;-53
2022/11/18 05:44:00;;;;;;;22.20;14.05;;;6.20;99.90;;;;;;4897742;29;20837;-53
2022/11/18 05:46:27;;;;;;;22.38;13.35;;;6.20;99.90;;;;;;4913450;29;20052;-54
2022/11/18 05:48:53;;;;;;;23.15;15.02;;;6.20;99.90;;;;;;4893338;29;20499;-54
2022/11/18 05:51:19;;;;;;;24.92;13.93;;;6.20;99.90;;;;;;4914029;29;20534;-54
2022/11/18 05:53:46;;;;;;;22.40;13.95;;;6.20;99.90;;;;;;4915172;29;20044;-50
2022/11/18 05:56:43;;;;;;;27.92;14.63;;;6.20;99.90;;;;;;4914022;29;20463;-53
2022/11/18 05:59:09;;;;;;;25.08;13.57;;;6.20;99.90;;;;;;4914940;29;20048;-52
2022/11/18 06:01:58;;;;;;;26.67;14.38;;;6.20;99.90;;;;;;4913342;29;20066;-55
2022/11/18 06:04:36;;;;;;;25.20;14.20;;;6.20;99.90;;;;;;4908986;29;20055;-54
2022/11/18 06:07:16;;;;;;;25.13;14.25;;;6.20;99.90;;;;;;4903651;29;20067;-51
2022/11/18 06:09:45;;;;;;;25.35;14.15;;;6.20;99.90;;;;;;4915243;29;20056;-56
2022/11/18 06:12:15;;;;;;;26.05;14.50;;;6.10;99.90;;;;;;4913275;29;20084;-53
2022/11/18 06:15:04;;;;;;;24.73;13.80;;;6.10;99.90;;;;;;4911419;29;20040;-53
2022/11/18 06:17:51;;;;;;;23.75;13.80;;;6.10;99.90;;;;;;4911056;29;20063;-54
2022/11/18 06:20:19;;;;;;;28.75;14.55;;;6.10;99.90;;;;;;4913284;29;20059;-49
2022/11/18 06:22:49;;;;;;;26.15;15.02;;;6.10;99.90;;;;;;4912949;29;20055;-55
2022/11/18 06:25:16;;;;;;;24.90;14.68;;;6.20;99.90;;;;;;4903695;29;20402;-55
2022/11/18 06:27:42;;;;;;;26.00;15.00;;;6.10;99.90;;;;;;4907139;29;20190;-54
2022/11/18 06:30:09;;;;;;;26.95;15.02;;;6.10;99.90;;;;;;4905005;29;20047;-53
2022/11/18 06:32:35;;;;;;;25.95;15.23;;;6.10;99.90;;;;;;4878839;29;20056;-54
2022/11/18 06:35:00;;;;;;;27.65;14.73;;;6.10;99.90;;;;;;4912918;29;20059;-54
2022/11/18 06:37:26;;;;;;;25.83;14.02;;;6.10;99.90;;;;;;4914429;29;20061;-55
2022/11/18 06:39:52;;;;;;;27.88;14.65;;;6.00;99.90;;;;;;4910281;29;20048;-56
2022/11/18 06:45:04;;;;;;;28.75;15.07;;;6.00;99.90;;;;;;4909553;29;20965;-56
2022/11/18 06:47:30;;;;;;;27.58;14.88;;;6.00;99.90;;;;;;4906397;29;20047;-53
2022/11/18 06:49:56;;;;;;;30.55;14.27;;;6.10;99.90;;;;;;4909468;29;20166;-50
2022/11/18 06:52:22;;;;;;;23.60;14.40;;;6.10;99.90;;;;;;4907425;29;20057;-53
2022/11/18 06:54:48;;;;;;;29.92;15.52;;;6.00;99.90;;;;;;4893307;29;20158;-54
2022/11/18 06:57:15;;;;;;;30.17;15.70;;;6.10;99.90;;;;;;4912173;29;20052;-52
2022/11/18 06:59:40;;;;;;;28.02;15.60;;;6.10;99.90;;;;;;4910719;29;20054;-53
2022/11/18 07:02:06;;;;;;;33.05;15.85;;;6.10;99.90;;;;;;4908273;29;20047;-54
2022/11/18 07:04:33;;;;;;;28.88;15.32;;;6.10;99.90;;;;;;4911163;29;20066;-55
2022/11/18 07:06:59;;;;;;;27.13;14.73;;;6.10;99.90;;;;;;4897455;29;20048;-53
2022/11/18 07:09:25;;;;;;;28.25;14.80;;;6.10;99.90;;;;;;4905853;29;20047;-55
2022/11/18 07:11:51;;;;;;;28.15;15.43;;;6.00;99.90;;;;;;4902594;29;20054;-55
2022/11/18 07:14:17;;;;;;;26.67;14.75;;;6.00;99.90;;;;;;4913390;29;20063;-55
2022/11/18 07:16:43;;;;;;;33.25;14.68;;;6.10;99.90;;;;;;4913400;29;20111;-54
2022/11/18 07:19:10;;;;;;;27.40;16.10;;;6.00;99.90;;;;;;4911932;29;20384;-55
2022/11/18 07:21:37;;;;;;;32.33;16.80;;;6.00;99.90;;;;;;4912922;29;20040;-55
2022/11/18 07:24:06;;;;;;;32.38;16.85;;;6.00;99.90;;;;;;4915136;29;20080;-53
2022/11/18 07:26:32;;;;;;;33.10;17.35;;;6.10;99.90;;;;;;4913041;29;20484;-51
2022/11/18 07:28:58;;;;;;;27.88;17.80;;;6.00;99.90;;;;;;4914297;29;20052;-55
2022/11/18 07:31:24;;;;;;;36.50;18.48;;;6.00;99.90;;;;;;4911772;29;20058;-56
2022/11/18 07:33:53;;;;;;;37.45;17.55;;;6.10;99.90;;;;;;4907679;29;20070;-54
2022/11/18 07:36:21;;;;;;;38.15;17.98;;;6.00;99.90;;;;;;4905470;29;20055;-52
2022/11/18 07:38:48;;;;;;;33.22;18.42;;;6.00;99.90;;;;;;4910426;29;20213;-54
2022/11/18 07:41:16;;;;;;;33.58;18.95;;;6.00;99.90;;;;;;4912397;29;20043;-53
2022/11/18 07:43:43;;;;;;;31.40;18.55;;;6.00;99.90;;;;;;4910360;29;20052;-55
2022/11/18 07:46:18;;;;;;;36.15;19.42;;;6.10;99.90;;;;;;4894677;29;20051;-54
2022/11/18 07:48:46;;;;;;;34.47;18.52;;;6.00;99.90;;;;;;4910637;29;20118;-54
2022/11/18 07:51:13;;;;;;;32.38;18.50;;;6.00;99.90;;;;;;4907999;29;20944;-54
2022/11/18 07:53:39;;;;;;;35.25;18.80;;;6.00;99.90;;;;;;4909985;29;20863;-55
2022/11/18 07:56:06;;;;;;;32.95;18.55;;;6.10;99.90;;;;;;4913065;29;20468;-53
2022/11/18 07:58:32;;;;;;;35.20;17.92;;;6.00;99.90;;;;;;4910109;29;20052;-56
2022/11/18 08:00:58;;;;;;;29.95;17.63;;;5.90;99.90;;;;;;4904972;29;20447;-55
2022/11/18 08:03:26;;;;;;;30.50;16.50;;;5.90;99.90;;;;;;4910380;29;20044;-55
2022/11/18 08:05:59;;;;;;;27.17;16.35;;;5.90;99.90;;;;;;4908122;29;20055;-54
2022/11/18 08:08:25;;;;;;;29.67;16.55;;;5.90;99.90;;;;;;4908786;29;20051;-54
2022/11/18 08:10:55;;;;;;;27.40;16.70;;;5.90;99.90;;;;;;4906720;29;20044;-54
2022/11/18 08:13:20;;;;;;;31.27;17.77;;;6.00;99.90;;;;;;4904401;29;20056;-56
2022/11/18 08:15:46;;;;;;;27.13;17.10;;;5.90;99.90;;;;;;4888441;29;20074;-55
2022/11/18 08:18:12;;;;;;;33.80;17.05;;;5.90;99.90;;;;;;4907528;29;20051;-54
2022/11/18 08:20:37;;;;;;;28.00;16.52;;;6.00;99.90;;;;;;4909091;29;20537;-55
2022/11/18 08:23:03;;;;;;;28.52;16.65;;;6.00;99.90;;;;;;4910070;29;20052;-55
2022/11/18 08:25:29;;;;;;;27.70;16.42;;;6.00;99.90;;;;;;4908624;29;20278;-54
2022/11/18 08:27:55;;;;;;;31.38;17.40;;;6.00;99.90;;;;;;4904596;29;20095;-55
2022/11/18 08:30:21;;;;;;;30.65;17.10;;;6.10;99.90;;;;;;4907274;29;20055;-55
2022/11/18 08:32:47;;;;;;;29.05;16.40;;;6.10;99.90;;;;;;4911927;29;20051;-56
2022/11/18 08:35:12;;;;;;;28.08;17.35;;;6.10;99.90;;;;;;4908262;29;20190;-56
2022/11/18 08:37:38;;;;;;;27.80;17.33;;;6.10;99.90;;;;;;4901207;29;20047;-55
2022/11/18 08:40:05;;;;;;;33.25;16.80;;;6.00;99.90;;;;;;4905877;29;20062;-56
2022/11/18 08:42:31;;;;;;;29.27;17.05;;;6.10;99.90;;;;;;4908570;29;20578;-54
2022/11/18 08:44:57;;;;;;;28.35;17.13;;;6.10;99.90;;;;;;4909354;29;20052;-55
2022/11/18 08:47:22;;;;;;;25.33;16.50;;;6.00;99.90;;;;;;4904143;29;20179;-55
2022/11/18 08:49:48;;;;;;;29.20;17.13;;;6.00;99.90;;;;;;4909925;29;20048;-55
2022/11/18 08:52:14;;;;;;;27.65;16.75;;;6.00;99.90;;;;;;4915990;29;20068;-55
2022/11/18 08:54:40;;;;;;;25.95;16.35;;;5.90;99.90;;;;;;4911155;29;20078;-56
2022/11/18 08:57:06;;;;;;;28.10;17.38;;;6.00;99.90;;;;;;4911061;29;20128;-56
2022/11/18 08:59:31;;;;;;;30.38;16.73;;;6.00;99.90;;;;;;4913445;29;20111;-54
2022/11/18 09:01:57;;;;;;;28.02;17.35;;;6.10;99.90;;;;;;4910317;29;20686;-57
2022/11/18 09:04:23;;;;;;;28.88;17.55;;;6.00;99.90;;;;;;4914729;29;20059;-54
2022/11/18 09:06:49;;;;;;;32.78;18.23;;;6.00;99.90;;;;;;4897749;29;21215;-55
2022/11/18 09:09:15;;;;;;;32.22;17.92;;;6.00;99.90;;;;;;4914168;29;20452;-56
2022/11/18 09:11:41;;;;;;;25.88;17.33;;;6.00;99.90;;;;;;4912221;29;20048;-55
2022/11/18 09:14:10;;;;;;;26.27;17.08;;;6.00;99.90;;;;;;4902723;29;22119;-54
2022/11/18 09:16:35;;;;;;;25.33;16.30;;;6.00;99.90;;;;;;4910961;29;20051;-56
2022/11/18 09:19:02;;;;;;;28.05;17.42;;;6.00;99.90;;;;;;4908654;29;20047;-56
2022/11/18 09:21:28;;;;;;;25.52;16.55;;;6.00;99.90;;;;;;4914698;29;20051;-56
2022/11/18 09:23:54;;;;;;;29.83;18.30;;;6.00;99.90;;;;;;4913753;29;21331;-54
2022/11/18 09:26:22;;;;;;;31.80;18.27;;;6.00;99.90;;;;;;4913090;29;20063;-55
2022/11/18 09:28:51;;;;;;;27.98;18.02;;;6.00;99.90;;;;;;4912126;29;20198;-54
2022/11/18 09:31:17;;;;;;;31.73;18.35;;;6.00;99.90;;;;;;4906331;29;20122;-55
2022/11/18 09:33:43;;;;;;;30.05;17.38;;;6.00;99.90;;;;;;4908733;29;20075;-55
2022/11/18 09:36:20;;;;;;;28.45;17.23;;;6.00;99.90;;;;;;4910941;29;20056;-55
2022/11/18 09:38:47;;;;;;;28.33;17.05;;;6.00;99.90;;;;;;4910087;29;20104;-54
2022/11/18 09:41:31;;;;;;;26.90;16.02;;;6.10;99.90;;;;;;4911629;29;20063;-55
2022/11/18 09:44:12;;;;;;;25.75;15.98;;;6.10;99.90;;;;;;4911987;29;20451;-55
2022/11/18 09:50:21;;;;;;;26.63;15.55;;;6.00;99.90;;;;;;4880054;29;20120;-54
2022/11/18 09:53:05;;;;;;;27.60;16.08;;;6.00;99.90;;;;;;4848384;29;20382;-54
2022/11/18 09:55:33;;;;;;;21.58;14.02;;;5.90;99.90;;;;;;4887039;29;20423;-54
2022/11/18 09:57:59;;;;;;;25.08;14.98;;;5.90;99.90;;;;;;4886166;29;20044;-55
2022/11/18 10:00:29;;;;;;;22.90;13.65;;;5.90;99.90;;;;;;4883542;29;20063;-53
2022/11/18 10:03:06;;;;;;;24.52;15.02;;;5.90;99.90;;;;;;4884778;29;20044;-52
2022/11/18 10:05:44;;;;;;;22.05;14.00;;;5.90;99.90;;;;;;4886893;29;20765;-55
2022/11/18 10:08:57;;;;;;;21.55;13.38;;;5.90;99.90;;;;;;4885596;29;20048;-55
2022/11/18 10:11:25;;;;;;;26.83;14.82;;;5.90;99.90;;;;;;4815927;29;20062;-54
2022/11/18 10:14:10;;;;;;;24.50;14.55;;;5.90;99.90;;;;;;4880263;29;20594;-55
2022/11/18 10:17:03;;;;;;;25.70;15.13;;;5.90;99.90;;;;;;4884012;29;20068;-54
2022/11/18 10:19:48;;;;;;;26.63;14.82;;;5.90;99.90;;;;;;4888475;29;20508;-54
2022/11/18 10:22:26;;;;;;;24.33;15.07;;;5.90;99.90;;;;;;4914772;29;20126;-54
2022/11/18 10:24:55;;;;;;;24.63;15.20;;;5.90;99.90;;;;;;4918893;29;20649;-55
2022/11/18 10:27:22;;;;;;;22.02;14.48;;;5.90;99.90;;;;;;4916662;29;20083;-55
2022/11/18 10:29:54;;;;;;;24.10;14.82;;;5.80;99.90;;;;;;4898320;29;20044;-55
2022/11/18 10:32:20;;;;;;;28.30;14.40;;;5.90;99.90;;;;;;4918042;28;20060;-54
2022/11/18 10:34:51;;;;;;;22.98;14.48;;;5.90;99.90;;;;;;4917704;29;20055;-56
2022/11/18 10:37:24;;;;;;;23.88;14.32;;;5.80;99.90;;;;;;4916965;29;20135;-52
2022/11/18 10:39:56;;;;;;;25.45;14.27;;;5.80;99.90;;;;;;4918058;29;20060;-54
2022/11/18 10:42:40;;;;;;;25.35;14.48;;;5.80;99.90;;;;;;4916827;29;20055;-55
2022/11/18 10:45:26;;;;;;;26.45;15.10;;;5.80;99.90;;;;;;4917717;29;20074;-54
2022/11/18 10:48:18;;;;;;;24.25;14.48;;;5.80;99.90;;;;;;4914719;29;20274;-55
2022/11/18 10:50:49;;;;;;;26.85;14.90;;;5.70;99.90;;;;;;4913566;29;20059;-54
2022/11/18 10:53:36;;;;;;;25.63;14.43;;;5.70;99.90;;;;;;4917037;29;20059;-55
2022/11/18 10:56:03;;;;;;;24.88;14.73;;;5.70;99.90;;;;;;4916227;29;20052;-55
2022/11/18 10:58:33;;;;;;;27.35;16.05;;;5.60;99.90;;;;;;4914421;29;20459;-54
2022/11/18 11:01:28;;;;;;;26.73;16.20;;;5.60;99.90;;;;;;4914324;29;20811;-52
2022/11/18 11:04:02;;;;;;;26.67;16.80;;;5.50;99.90;;;;;;4902261;29;20139;-55
2022/11/18 11:06:36;;;;;;;28.85;16.20;;;5.50;99.90;;;;;;4916156;29;20052;-54
2022/11/18 11:09:08;;;;;;;27.75;15.95;;;5.40;99.90;;;;;;4915724;29;20048;-53
2022/11/18 11:11:38;;;;;;;28.95;16.38;;;5.40;99.90;;;;;;4915860;29;20047;-54
2022/11/18 11:14:13;;;;;;;31.13;18.10;;;5.30;99.90;;;;;;4915144;29;20566;-52
2022/11/18 11:16:54;;;;;;;33.53;17.17;;;5.30;99.90;;;;;;4911574;29;20044;-52
2022/11/18 11:19:24;;;;;;;32.35;17.33;;;5.30;99.90;;;;;;4916646;29;20111;-56
2022/11/18 11:21:50;;;;;;;29.70;17.20;;;5.30;99.90;;;;;;4915197;29;20052;-55
2022/11/18 11:24:16;;;;;;;31.63;17.48;;;5.20;99.90;;;;;;4915493;29;20088;-53
2022/11/18 11:26:50;;;;;;;32.88;16.90;;;5.20;99.90;;;;;;4914903;29;20495;-55
2022/11/18 11:29:25;;;;;;;27.30;15.80;;;5.20;99.90;;;;;;4914966;29;20055;-53
2022/11/18 11:32:27;;;;;;;33.83;16.05;;;5.20;99.90;;;;;;4913936;29;20040;-53
2022/11/18 11:35:02;;;;;;;27.02;16.05;;;5.10;99.90;;;;;;4914674;29;20054;-53
2022/11/18 11:37:39;;;;;;;31.13;16.25;;;5.10;99.90;;;;;;4915838;29;20062;-54
2022/11/18 11:40:15;;;;;;;30.95;16.73;;;5.10;99.90;;;;;;4915909;29;20058;-53
2022/11/18 11:43:05;;;;;;;31.83;18.05;;;5.00;99.90;;;;;;4916875;29;20052;-54
2022/11/18 11:45:41;;;;;;;34.25;17.95;;;5.00;99.90;;;;;;4914957;29;20052;-53
2022/11/18 11:48:22;;;;;;;31.48;16.90;;;5.00;99.90;;;;;;4913753;29;20048;-55
2022/11/18 11:50:53;;;;;;;35.92;18.20;;;5.00;99.90;;;;;;4914204;29;20055;-54
2022/11/18 11:53:47;;;;;;;32.80;18.60;;;5.00;99.90;;;;;;4911434;29;20055;-51
2022/11/18 11:56:19;;;;;;;35.35;17.20;;;5.00;99.90;;;;;;4914631;29;20055;-54
2022/11/18 11:58:56;;;;;;;37.03;18.48;;;4.90;99.90;;;;;;4914059;29;20055;-53
2022/11/18 12:01:43;;;;;;;34.15;18.48;;;4.90;99.90;;;;;;4914923;29;20055;-52
2022/11/18 12:04:15;;;;;;;31.02;17.38;;;4.90;99.90;;;;;;4914302;29;20522;-54
2022/11/18 12:06:45;;;;;;;35.22;18.63;;;4.80;99.90;;;;;;4897409;29;20048;-55
2022/11/18 12:09:20;;;;;;;37.83;19.10;;;4.80;99.90;;;;;;4914465;29;20039;-56
2022/11/18 12:12:00;;;;;;;32.38;17.38;;;4.80;99.90;;;;;;4914304;29;20052;-54
2022/11/18 12:14:31;;;;;;;35.35;18.23;;;4.80;99.90;;;;;;4915839;29;20103;-55
2022/11/18 12:17:22;;;;;;;35.03;18.30;;;4.80;99.90;;;;;;4913453;29;20051;-55
2022/11/18 12:19:48;;;;;;;33.90;17.75;;;4.80;99.90;;;;;;4914051;29;20047;-53
2022/11/18 12:22:13;;;;;;;33.47;18.73;;;4.70;99.90;;;;;;4914170;29;20087;-54
2022/11/18 12:24:41;;;;;;;31.42;17.58;;;4.80;99.90;;;;;;4914703;29;20044;-54
2022/11/18 12:27:29;;;;;;;32.58;17.40;;;4.80;99.90;;;;;;4913761;29;20057;-54
2022/11/18 12:30:00;;;;;;;33.67;17.30;;;4.80;99.90;;;;;;4914748;29;20048;-55
2022/11/18 12:32:41;;;;;;;34.42;17.60;;;4.70;99.90;;;;;;4913291;29;20055;-53
2022/11/18 12:35:34;;;;;;;30.92;17.73;;;4.70;99.90;;;;;;4914732;29;20077;-55
2022/11/18 12:38:01;;;;;;;31.67;16.63;;;4.70;99.90;;;;;;4914226;29;20036;-53
2022/11/18 12:40:47;;;;;;;28.90;16.60;;;4.70;99.90;;;;;;4915105;29;20044;-54
2022/11/18 12:46:29;;;;;;;27.30;15.95;;;4.70;99.90;;;;;;4912666;29;20055;-54
2022/11/18 12:48:56;;;;;;;23.80;14.63;;;4.70;99.90;;;;;;4914063;29;20100;-55
2022/11/18 12:51:23;;;;;;;26.13;14.07;;;4.70;99.90;;;;;;4888937;29;20044;-50
2022/11/18 12:53:53;;;;;;;25.80;14.77;;;4.70;99.90;;;;;;4913312;29;20135;-54
2022/11/18 12:56:27;;;;;;;24.67;14.43;;;4.70;99.90;;;;;;4912047;29;20066;-52
2022/11/18 12:58:59;;;;;;;24.00;14.35;;;4.60;99.90;;;;;;4913855;29;20044;-54
2022/11/18 13:01:34;;;;;;;24.42;14.48;;;4.60;99.90;;;;;;4912855;29;20492;-55
2022/11/18 13:04:14;;;;;;;27.52;14.65;;;4.60;99.90;;;;;;4914544;29;20048;-54
2022/11/18 13:06:41;;;;;;;25.58;14.98;;;4.60;99.90;;;;;;4914193;29;20048;-56
2022/11/18 13:09:20;;;;;;;26.13;15.18;;;4.60;99.90;;;;;;4914261;29;20051;-55
2022/11/18 13:11:52;;;;;;;24.40;15.02;;;4.50;99.90;;;;;;4913425;29;20672;-54
2022/11/18 13:20:34;;;;;;;27.00;15.45;;;4.50;99.90;;;;;;4913233;29;20103;-55
2022/11/18 13:26:17;;;;;;;23.40;14.40;;;4.50;99.90;;;;;;4912996;29;20059;-55